Tiempo atmosférico en la estación meteorológica de Monforte De Lemos, Lugo (291 m.)



Fecha
DESCASC
Temp. máxima en grados centígrados (hora)
DESCASC
Temp. mínima en grados centígrados (hora)
DESCASC
Temp. media en grados centígrados
DESCASC
Racha de viento máxima en m/sg (hora)
DESCASC
Velocidad máxima media en intervalos de 10 minutos(hora)
DESCASC
Precipitaciones diarias en mm
DESCASC
Precipitaciones de 00:00 a 06:00 en mm
DESCASC
Precipitaciones de 06:00 a 12:00 en mm
DESCASC
Precipitaciones de 12:00 a 18:00 en mm
DESCASC
Precipitaciones de 18:00 a 24:00 en mm
DESCASC
18-08-2019 21.8 (19:00) 15.7 (23:59) 18.7 6.11 (20:50) 2.5 (15:00) 9.8 0 9.6 0.2 0
17-08-2019 32.1 (16:50) 13 (07:10) 22.5 7.5 (16:10) 3.33 (18:50) 0 0 0 0 0
16-08-2019 32.4 (16:50) 10.3 (08:10) 21.4 7.22 (16:00) 3.06 (19:20) 0 0 0 0 0
15-08-2019 30.5 (16:10) 13.4 (00:00) 21.9 6.39 (18:50) 3.33 (18:10) 0 0 0 0 0
14-08-2019 28.7 (15:20) 11.5 (00:00) 20.1 6.11 (17:30) 3.33 (19:20) 0 0 0 0 0
13-08-2019 28.6 (16:50) 6.8 (00:00) 17.7 5.56 (20:20) 2.78 (20:30) 0 0 0 0 0
12-08-2019 22.8 (14:10) 9.5 (00:00) 16.1 6.94 (20:40) 3.33 (20:40) 0 0 0 0 0
11-08-2019 23.1 (16:00) 14.1 (00:00) 18.6 7.78 (16:20) 3.61 (16:20) 0.4 0 0 0.4 0
10-08-2019 25.8 (16:20) 11.9 (00:00) 18.8 6.39 (15:20) 2.78 (20:10) 0 0 0 0 0
09-08-2019 24.3 (14:50) 15.5 (00:00) 19.9 12.5 (16:00) 5.83 (14:00) 6.6 6.6 0 0 0
08-08-2019 27.8 (16:30) 18.7 (00:00) 23.3 10.28 (19:20) 5 (19:30) 0.4 0 0 0.2 0.2
07-08-2019 22.3 (13:00) 14.9 (00:00) 18.6 2.78 (11:40) 1.11 (11:40) 8.4 0 0 8 0.4
06-08-2019 25.3 (14:50) 17 (00:00) 21.1 5.83 (17:30) 2.5 (17:30) 0 0 0 0 0
05-08-2019 32.2 (16:20) 15.9 (00:00) 24.1 6.94 (20:30) 3.33 (19:50) 0 0 0 0 0
04-08-2019 30.7 (16:40) 17.4 (00:00) 24.1 8.33 (19:40) 3.61 (19:20) 0 0 0 0 0
03-08-2019 33.2 (16:50) 13.6 (00:00) 23.4 7.22 (20:40) 3.33 (20:40) 0 0 0 0 0
02-08-2019 32.9 (17:10) 17.5 (00:00) 25.2 6.11 (21:00) 2.5 (19:10) 0 0 0 0 0
01-08-2019 30.2 (16:50) 13.7 (00:00) 22 7.5 (19:30) 3.61 (19:30) 0 0 0 0 0
31-07-2019 25.5 (17:20) 7.8 (00:00) 16.7 5.56 (18:50) 2.22 (17:30) 0 0 0 0 0
30-07-2019 24.4 (16:10) 9.1 (00:00) 16.8 7.78 (19:30) 2.78 (18:00) 0 0 0 0 0
29-07-2019 25.1 (16:10) 13.1 (00:00) 19.1 9.17 (15:00) 4.72 (20:30) 0 0 0 0 0
28-07-2019 28.8 (17:00) 8.4 (00:00) 18.6 6.67 (16:20) 2.78 (16:30) 0 0 0 0 0
27-07-2019 22.4 (16:00) 14.8 (00:00) 18.6 8.06 (18:50) 3.33 (19:30) 3.8 0 2 1.8 0
26-07-2019 26.6 (16:20) 11.5 (00:00) 19.1 7.5 (18:20) 3.06 (18:40) 0.2 0 0 0.2 0
25-07-2019 28 (13:20) 14 (00:00) 21 8.89 (16:10) 3.89 (13:10) 0.2 0 0 0.2 0
24-07-2019 34.6 (16:10) 14.3 (00:00) 24.4 8.33 (16:20) 3.89 (15:40) 0 0 0 0 0

Gráficas

Temp. máximas Temp. mínimas Temp. medias Precipitaciones Rachas de viento máximas Velocidades máximas media en intervalos de 10 minutos

Datos horarios

Fecha y hora oficial Temperatura (ºC) Velocidad del viento (km/h) Dirección del viento Racha (km/h) Dirección de racha Precipitación (mm) Presión (hPa) Tendencia (hPa) Humedad (%)
2019-08-22 23:00:00 22.3 0 Calma 5 Sur 0 -- -- 68
2019-08-22 22:00:00 24.5 2 Nordeste 14 Norte 0 -- -- 60
2019-08-22 21:00:00 27.3 2 Norte 6 Noroeste 0 -- -- 59
2019-08-22 20:00:00 30.6 4 Noroeste 11 Noroeste 0 -- -- 41
2019-08-22 19:00:00 32 2 Este 9 Norte 0 -- -- 42
2019-08-22 18:00:00 33 2 Oeste 12 Noroeste 0 -- -- 34
2019-08-22 17:00:00 34.9 4 Oeste 13 Noroeste 0 -- -- 31
2019-08-22 16:00:00 34.2 3 Sudeste 8 Sudoeste 0 -- -- 30
2019-08-22 15:00:00 31.9 2 Nordeste 8 Sur 0 -- -- 39
2019-08-22 14:00:00 28.3 2 Oeste 8 Sudeste 0 -- -- 46
2019-08-22 13:00:00 25 3 Sudoeste 7 Sur 0 -- -- 58
2019-08-22 12:00:00 20.4 0 Calma 5 Noroeste 0 -- -- 73
2019-08-22 11:00:00 15.6 2 Oeste 5 Sudoeste 0 -- -- 91
2019-08-22 10:00:00 13.8 0 Calma 5 Noroeste 0 -- -- 95
2019-08-22 09:00:00 13.1 0 Calma 3 Noroeste 0 -- -- 96
2019-08-22 08:00:00 12.5 0 Calma 3 Noroeste 0 -- -- 94
2019-08-22 07:00:00 11.8 0 Calma 4 Noroeste 0 -- -- 93
2019-08-22 06:00:00 12 0 Calma 2 Noroeste 0 -- -- 90
2019-08-22 05:00:00 12.6 0 Calma 4 Noroeste 0 -- -- 89
2019-08-22 04:00:00 13.4 0 Calma 3 Noroeste 0 -- -- 88
2019-08-22 03:00:00 14.2 0 Calma 3 Noroeste 0 -- -- 86
2019-08-22 02:00:00 15.5 0 Calma 3 Oeste 0 -- -- 85
2019-08-22 01:00:00 16.8 0 Calma 3 Sudoeste 0 -- -- 83
2019-08-22 00:00:00 18 0 Calma 6 Sudoeste 0 -- -- 79
2019-08-21 23:00:00 19 0 Calma 5 Sudoeste 0 -- -- 75
2019-08-21 22:00:00 21.3 0 Calma 12 Norte 0 -- -- 68
2019-08-21 21:00:00 23.5 3 Norte 23 Noroeste 0 -- -- 59
2019-08-21 20:00:00 25.5 8 Norte 24 Norte 0 -- -- 53
2019-08-21 19:00:00 27.2 12 Norte 25 Nordeste 0 -- -- 47
2019-08-21 18:00:00 28.6 11 Norte 28 Norte 0 -- -- 44
2019-08-21 17:00:00 30.5 8 Norte 23 Nordeste 0 -- -- 38
2019-08-21 16:00:00 30.6 7 Nordeste 27 Nordeste 0 -- -- 39
2019-08-21 15:00:00 29.8 5 Nordeste 15 Nordeste 0 -- -- 43
2019-08-21 14:00:00 27.6 0 Calma 10 Norte 0 -- -- 44
2019-08-21 13:00:00 25.2 2 Este 13 Norte 0 -- -- 50
2019-08-21 12:00:00 22.1 2 Este 8 Nordeste 0 -- -- 63
2019-08-21 11:00:00 18.1 2 Norte 6 Sudeste 0 -- -- 76
2019-08-21 10:00:00 14.2 0 Calma 6 Noroeste 0 -- -- 92
2019-08-21 09:00:00 12.7 0 Calma 5 Nordeste 0 -- -- 92
2019-08-21 08:00:00 12.7 0 Calma 3 Nordeste 0 -- -- 92
2019-08-21 07:00:00 13.1 0 Calma 6 Norte 0 -- -- 91
2019-08-21 06:00:00 13.6 2 Norte 4 Norte 0 -- -- 91
2019-08-21 05:00:00 14.1 0 Calma 4 Norte 0 -- -- 89
2019-08-21 04:00:00 14.8 0 Calma 3 Sudoeste 0 -- -- 86
2019-08-21 03:00:00 15.7 0 Calma 4 Norte 0 -- -- 84
2019-08-21 02:00:00 16.4 0 Calma 5 Sudoeste 0 -- -- 83
2019-08-21 01:00:00 17.2 2 Sudoeste 7 Sudoeste 0 -- -- 80
2019-08-21 00:00:00 18.1 0 Calma 12 Noroeste 0 -- -- 76
2019-08-20 23:00:00 19.3 2 Oeste 11 Noroeste 0 -- -- 72
2019-08-20 22:00:00 20.6 4 Noroeste 14 Noroeste 0 -- -- 66
2019-08-20 21:00:00 22.4 6 Norte 21 Norte 0 -- -- 61
2019-08-20 20:00:00 24.4 10 Norte 23 Oeste 0 -- -- 56
2019-08-20 19:00:00 26.1 9 Norte 24 Norte 0 -- -- 51
2019-08-20 18:00:00 27.3 5 Norte 16 Norte 0 -- -- 44
2019-08-20 17:00:00 28.7 4 Norte 17 Nordeste 0 -- -- 42
2019-08-20 16:00:00 28.3 3 Noroeste 17 Norte 0 -- -- 43
2019-08-20 15:00:00 27.1 6 Norte 17 Norte 0 -- -- 46
2019-08-20 14:00:00 25.1 3 Norte 13 Nordeste 0 -- -- 56
2019-08-20 13:00:00 22.7 4 Este 11 Sudeste 0 -- -- 63
2019-08-20 12:00:00 20 2 Sur 9 Norte 0 -- -- 68
2019-08-20 11:00:00 16.3 0 Calma 0 Calma 0 -- -- 77
2019-08-20 10:00:00 12.2 0 Calma 0 Calma 0 -- -- 92
2019-08-20 09:00:00 9.9 0 Calma 0 Calma 0 -- -- 94
2019-08-20 08:00:00 9.2 0 Calma 0 Calma 0 -- -- 93
2019-08-20 07:00:00 9.1 0 Calma 2 Nordeste 0 -- -- 92
2019-08-20 06:00:00 9.6 0 Calma 5 Nordeste 0 -- -- 91
2019-08-20 05:00:00 10.4 0 Calma 2 Nordeste 0 -- -- 89
2019-08-20 04:00:00 11.3 2 Nordeste 4 Nordeste 0 -- -- 87
2019-08-20 03:00:00 12.3 0 Calma 4 Nordeste 0 -- -- 85
2019-08-20 02:00:00 13.3 2 Nordeste 8 Sudoeste 0 -- -- 83
2019-08-20 01:00:00 14.3 2 Sudoeste 8 Oeste 0 -- -- 79
2019-08-20 00:00:00 15.5 4 Noroeste 17 Norte 0 -- -- 72
2019-08-19 23:00:00 16.7 5 Norte 23 Noroeste 0 -- -- 70
2019-08-19 22:00:00 17.8 7 Noroeste 22 Norte 0 -- -- 68
2019-08-19 21:00:00 19.4 11 Norte 23 Noroeste 0 -- -- 64
2019-08-19 20:00:00 20.8 12 Norte 30 Noroeste 0 -- -- 60
2019-08-19 19:00:00 21.7 13 Norte 31 Nordeste 0 -- -- 58
2019-08-19 18:00:00 23.1 11 Norte 26 Norte 0 -- -- 55
2019-08-19 17:00:00 25.8 8 Norte 21 Noroeste 0 -- -- 46
2019-08-19 16:00:00 25.6 4 Sur 13 Norte 0 -- -- 42
2019-08-19 15:00:00 24.1 5 Nordeste 12 Nordeste 0 -- -- 51
2019-08-19 14:00:00 22.2 3 Oeste 11 Noroeste 0 -- -- 57
2019-08-19 13:00:00 20.3 4 Sur 10 Este 0 -- -- 60
2019-08-19 12:00:00 18.2 2 Este 8 Nordeste 0 -- -- 71
2019-08-19 11:00:00 15.5 2 Este 5 Nordeste 0 -- -- 79
2019-08-19 10:00:00 12 0 Calma 3 Norte 0 -- -- 92
2019-08-19 09:00:00 10.5 0 Calma 3 Norte 0 -- -- 95
2019-08-19 08:00:00 10.4 0 Calma 3 Norte 0 -- -- 92
2019-08-19 07:00:00 10.9 0 Calma 4 Norte 0 -- -- 93
2019-08-19 06:00:00 11.3 0 Calma 5 Norte 0 -- -- 92
2019-08-19 05:00:00 12 0 Calma 4 Norte 0 -- -- 90
2019-08-19 04:00:00 12.4 0 Calma 4 Sudoeste 0 -- -- 88
2019-08-19 03:00:00 13.3 0 Calma 8 Sudoeste 0 -- -- 84
2019-08-19 02:00:00 14.2 0 Calma 8 Noroeste 0 -- -- 78
2019-08-19 01:00:00 14.9 3 Noroeste 6 Noroeste 0 -- -- 77
2019-08-19 00:00:00 15.7 2 Noroeste 15 Norte 0 -- -- 76
2019-08-18 23:00:00 17 4 Noroeste 16 Noroeste 0 -- -- 74
2019-08-18 22:00:00 18.2 6 Norte 18 Noroeste 0 -- -- 73
2019-08-18 21:00:00 20.1 8 Norte 22 Noroeste 0 -- -- 66
2019-08-18 20:00:00 21.4 5 Norte 11 Norte 0 -- -- 68
2019-08-18 19:00:00 21.8 0 Calma 9 Sudoeste 0 -- -- 73
2019-08-18 18:00:00 21.3 3 Norte 12 Nordeste 0 -- -- 75
2019-08-18 17:00:00 20.3 2 Nordeste 12 Norte 0 -- -- 77
2019-08-18 16:00:00 20.2 4 Norte 13 Noroeste 0 -- -- 81
2019-08-18 15:00:00 20.3 9 Noroeste 17 Noroeste 0 -- -- 83
2019-08-18 14:00:00 20.2 4 Oeste 11 Norte 0 -- -- 86
2019-08-18 13:00:00 18.8 2 Oeste 8 Noroeste 0.2 -- -- 90
2019-08-18 12:00:00 18.3 0 Calma 11 Noroeste 1.2 -- -- 92
2019-08-18 11:00:00 18.3 4 Norte 13 Norte 6.6 -- -- 91
2019-08-18 10:00:00 18.6 0 Calma 6 Nordeste 1.4 -- -- 92
2019-08-18 09:00:00 18.8 2 Nordeste 13 Norte 0.4 -- -- 88
2019-08-18 08:00:00 19.6 0 Calma 4 Nordeste 0 -- -- 82
2019-08-18 07:00:00 19.7 0 Calma 4 Norte 0 -- -- 79
2019-08-18 06:00:00 19.8 2 Sudeste 10 Sudoeste 0 -- -- 76
2019-08-18 05:00:00 19.8 2 Sur 7 Sudoeste 0 -- -- 78
2019-08-18 04:00:00 20.4 3 Sudoeste 11 Sudoeste 0 -- -- 77
2019-08-18 03:00:00 19.7 4 Sudoeste 10 Sudoeste 0 -- -- 81
2019-08-18 02:00:00 19.3 0 Calma 5 Sudeste 0 -- -- 84
2019-08-18 01:00:00 19.8 0 Calma 10 Sudoeste 0 -- -- 80
2019-08-18 00:00:00 20.4 3 Oeste 7 Oeste 0 -- -- 77
2019-08-17 23:00:00 21.7 3 Sudoeste 13 Sudoeste 0 -- -- 72
2019-08-17 22:00:00 23.4 6 Sudoeste 15 Sur 0 -- -- 66
2019-08-17 21:00:00 25.9 4 Oeste 24 Sudoeste 0 -- -- 58
2019-08-17 20:00:00 27.7 8 Oeste 24 Sudoeste 0 -- -- 49
2019-08-17 19:00:00 29.3 12 Sudoeste 27 Sudoeste 0 -- -- 46
2019-08-17 18:00:00 30.5 6 Oeste 24 Noroeste 0 -- -- 42
2019-08-17 17:00:00 31.9 6 Oeste 27 Noroeste 0 -- -- 42
2019-08-17 16:00:00 31.9 6 Oeste 21 Noroeste 0 -- -- 43
2019-08-17 15:00:00 30.5 4 Noroeste 20 Sudoeste 0 -- -- 45
2019-08-17 14:00:00 28.4 5 Oeste 17 Sudoeste 0 -- -- 53
2019-08-17 13:00:00 25.3 4 Sur 12 Sudeste 0 -- -- 61
2019-08-17 12:00:00 23.3 2 Noroeste 10 Noroeste 0 -- -- 65
2019-08-17 11:00:00 20.4 3 Sudoeste 8 Noroeste 0 -- -- 75
2019-08-17 10:00:00 16.2 0 Calma 6 Norte 0 -- -- 91
2019-08-17 09:00:00 14.5 0 Calma 5 Sudeste 0 -- -- 93
2019-08-17 08:00:00 13.5 0 Calma 3 Sur 0 -- -- 95
2019-08-17 07:00:00 13.1 0 Calma 4 Nordeste 0 -- -- 89
2019-08-17 06:00:00 13.7 0 Calma 3 Nordeste 0 -- -- 90
2019-08-17 05:00:00 14.1 0 Calma 4 Norte 0 -- -- 89
2019-08-17 04:00:00 15 0 Calma 3 Sudeste 0 -- -- 87
2019-08-17 03:00:00 15.8 0 Calma 3 Norte 0 -- -- 85
2019-08-17 02:00:00 16.8 0 Calma 4 Norte 0 -- -- 84
2019-08-17 01:00:00 18.4 0 Calma 4 Sur 0 -- -- 80
2019-08-17 00:00:00 19.6 0 Calma 8 Norte 0 -- -- 79
2019-08-16 23:00:00 21.4 2 Norte 7 Noroeste 0 -- -- 70
2019-08-16 22:00:00 23.9 4 Noroeste 19 Norte 0 -- -- 60
2019-08-16 21:00:00 26.6 6 Noroeste 18 Noroeste 0 -- -- 54
2019-08-16 20:00:00 28.6 6 Noroeste 23 Oeste 0 -- -- 48
2019-08-16 19:00:00 29.9 7 Noroeste 20 Sur 0 -- -- 45
2019-08-16 18:00:00 30.5 9 Noroeste 25 Sur 0 -- -- 46
2019-08-16 17:00:00 32.1 8 Sudoeste 22 Sudoeste 0 -- -- 37
2019-08-16 16:00:00 32 6 Oeste 26 Sudoeste 0 -- -- 37
2019-08-16 15:00:00 31.6 4 Noroeste 12 Sudoeste 0 -- -- 29
2019-08-16 14:00:00 28.7 3 Sudeste 11 Sur 0 -- -- 44
2019-08-16 13:00:00 26.2 0 Calma 0 Calma 0 -- -- 57
2019-08-16 12:00:00 22.4 0 Calma 0 Calma 0 -- -- 71
2019-08-16 11:00:00 17.9 0 Calma 0 Calma 0 -- -- 82
2019-08-16 10:00:00 13.7 0 Calma 0 Calma 0 -- -- 92
2019-08-16 09:00:00 11.4 0 Calma 0 Calma 0 -- -- 95
2019-08-16 08:00:00 10.4 0 Calma 0 Calma 0 -- -- 91
2019-08-16 07:00:00 11.1 0 Calma 0 Calma 0 -- -- 90
2019-08-16 06:00:00 11.8 0 Calma 0 Calma 0 -- -- 89
2019-08-16 05:00:00 12.8 0 Calma 2 Nordeste 0 -- -- 88
2019-08-16 04:00:00 13.8 0 Calma 3 Noroeste 0 -- -- 88
2019-08-16 03:00:00 14.8 0 Calma 4 Noroeste 0 -- -- 86
2019-08-16 02:00:00 16.2 0 Calma 3 Nordeste 0 -- -- 83
2019-08-16 01:00:00 17.8 0 Calma 3 Sur 0 -- -- 80
2019-08-16 00:00:00 19.3 0 Calma 5 Sudoeste 0 -- -- 77
2019-08-15 23:00:00 21.1 0 Calma 8 Norte 0 -- -- 70
2019-08-15 22:00:00 23.1 3 Norte 8 Norte 0 -- -- 63
2019-08-15 21:00:00 25.6 5 Norte 16 Nordeste 0 -- -- 55
2019-08-15 20:00:00 26.9 8 Norte 23 Norte 0 -- -- 51
2019-08-15 19:00:00 28 10 Norte 23 Nordeste 0 -- -- 49
2019-08-15 18:00:00 28.9 9 Norte 23 Norte 0 -- -- 48
2019-08-15 17:00:00 30.2 6 Norte 17 Noroeste 0 -- -- 46
2019-08-15 16:00:00 30.1 6 Norte 15 Norte 0 -- -- 46
2019-08-15 15:00:00 28.7 4 Sur 10 Sur 0 -- -- 49
2019-08-15 14:00:00 26.5 3 Sudeste 9 Sur 0 -- -- 55
2019-08-15 13:00:00 23 3 Sur 11 Sudoeste 0 -- -- 66
2019-08-15 12:00:00 19.8 3 Sudeste 6 Sudeste 0 -- -- 79
2019-08-15 11:00:00 17.7 2 Sudeste 6 Noroeste 0 -- -- 85
2019-08-15 10:00:00 16.4 0 Calma 5 Norte 0 -- -- 90
2019-08-15 09:00:00 15.1 0 Calma 3 Sur 0 -- -- 94
2019-08-15 08:00:00 13.6 0 Calma 3 Norte 0 -- -- 94
2019-08-15 07:00:00 13.7 0 Calma 4 Este 0 -- -- 90
2019-08-15 06:00:00 14.5 0 Calma 4 Nordeste 0 -- -- 90
2019-08-15 05:00:00 15.2 0 Calma 4 Norte 0 -- -- 90
2019-08-15 04:00:00 16.5 0 Calma 3 Noroeste 0 -- -- 87
2019-08-15 03:00:00 17.7 0 Calma 4 Oeste 0 -- -- 87
2019-08-15 02:00:00 17.9 0 Calma 3 Sudeste 0 -- -- 89
2019-08-15 01:00:00 17.2 0 Calma 3 Sur 0 -- -- 87
2019-08-15 00:00:00 18.3 0 Calma 8 Nordeste 0 -- -- 83
2019-08-14 23:00:00 20.2 0 Calma 3 Norte 0 -- -- 79
2019-08-14 22:00:00 21.7 0 Calma 7 Nordeste 0 -- -- 74
2019-08-14 21:00:00 23.6 3 Norte 18 Norte 0 -- -- 68
2019-08-14 20:00:00 24.9 10 Noroeste 22 Noroeste 0 -- -- 66
2019-08-14 19:00:00 26.5 10 Noroeste 21 Noroeste 0 -- -- 63
2019-08-14 18:00:00 26.3 8 Noroeste 22 Norte 0 -- -- 65
2019-08-14 17:00:00 26.6 8 Norte 21 Noroeste 0 -- -- 62
2019-08-14 16:00:00 27.2 7 Noroeste 19 Norte 0 -- -- 59
2019-08-14 15:00:00 28.5 6 Noroeste 17 Noroeste 0 -- -- 54
2019-08-14 14:00:00 27.3 4 Sur 13 Sudeste 0 -- -- 52
2019-08-14 13:00:00 24.7 4 Sudoeste 12 Sudoeste 0 -- -- 59
2019-08-14 12:00:00 22 2 Sur 7 Sudeste 0 -- -- 67
2019-08-14 11:00:00 18.6 3 Sur 7 Sudoeste 0 -- -- 77
2019-08-14 10:00:00 14.9 3 Sudoeste 6 Sudoeste 0 -- -- 89
2019-08-14 09:00:00 12.2 0 Calma 3 Nordeste 0 -- -- 95
2019-08-14 08:00:00 11.5 0 Calma 4 Norte 0 -- -- 92
2019-08-14 07:00:00 11.8 0 Calma 4 Norte 0 -- -- 91
2019-08-14 06:00:00 12.3 0 Calma 3 Norte 0 -- -- 90
2019-08-14 05:00:00 12.9 0 Calma 4 Noroeste 0 -- -- 88
2019-08-14 04:00:00 13.6 0 Calma 3 Norte 0 -- -- 87
2019-08-14 03:00:00 14.6 2 Norte 4 Norte 0 -- -- 86
2019-08-14 02:00:00 16 2 Sudoeste 5 Sudoeste 0 -- -- 83
2019-08-14 01:00:00 16.8 0 Calma 5 Noroeste 0 -- -- 81
2019-08-14 00:00:00 18.2 0 Calma 4 Oeste 0 -- -- 76
2019-08-13 23:00:00 19.8 0 Calma 12 Norte 0 -- -- 70
2019-08-13 22:00:00 21.6 2 Nordeste 17 Noroeste 0 -- -- 60
2019-08-13 21:00:00 23.8 9 Noroeste 20 Oeste 0 -- -- 50
2019-08-13 20:00:00 25.6 4 Oeste 16 Oeste 0 -- -- 46
2019-08-13 19:00:00 26.1 5 Oeste 16 Sudoeste 0 -- -- 39
2019-08-13 18:00:00 26.8 6 Noroeste 17 Norte 0 -- -- 35
2019-08-13 17:00:00 28.4 5 Norte 19 Oeste 0 -- -- 32
2019-08-13 16:00:00 27.7 5 Oeste 15 Sudoeste 0 -- -- 33
2019-08-13 15:00:00 26.5 3 Sudoeste 13 Sudoeste 0 -- -- 43
2019-08-13 14:00:00 24.2 3 Nordeste 10 Noroeste 0 -- -- 49
2019-08-13 13:00:00 20.9 3 Sur 9 Sudeste 0 -- -- 57
2019-08-13 12:00:00 18.2 3 Sudoeste 7 Sudoeste 0 -- -- 65
2019-08-13 11:00:00 14.8 0 Calma 5 Sudoeste 0 -- -- 76
2019-08-13 10:00:00 10.4 0 Calma 4 Norte 0 -- -- 92
2019-08-13 09:00:00 7.9 0 Calma 3 Norte 0 -- -- 95
2019-08-13 08:00:00 6.8 0 Calma 3 Norte 0 -- -- 91
2019-08-13 07:00:00 7.4 0 Calma 3 Norte 0 -- -- 90
2019-08-13 06:00:00 8 0 Calma 4 Norte 0 -- -- 88
2019-08-13 05:00:00 8.9 0 Calma 3 Noroeste 0 -- -- 87
2019-08-13 04:00:00 9.8 0 Calma 4 Noroeste 0 -- -- 86
2019-08-13 03:00:00 11 0 Calma 3 Norte 0 -- -- 84
2019-08-13 02:00:00 12.3 0 Calma 6 Sudoeste 0 -- -- 80
2019-08-13 01:00:00 13.5 0 Calma 8 Sudoeste 0 -- -- 77
2019-08-13 00:00:00 14.8 0 Calma 10 Norte 0 -- -- 70
2019-08-12 23:00:00 16 2 Noroeste 10 Noroeste 0 -- -- 66
2019-08-12 22:00:00 17.9 5 Norte 18 Norte 0 -- -- 61
2019-08-12 21:00:00 19.7 11 Norte 25 Nordeste 0 -- -- 58
2019-08-12 20:00:00 20.8 7 Norte 19 Noroeste 0 -- -- 53
2019-08-12 19:00:00 21.4 9 Norte 21 Nordeste 0 -- -- 49
2019-08-12 18:00:00 21 6 Norte 16 Oeste 0 -- -- 49
2019-08-12 17:00:00 21.2 6 Norte 21 Norte 0 -- -- 45
2019-08-12 16:00:00 22.3 8 Norte 24 Norte 0 -- -- 45
2019-08-12 15:00:00 22.4 9 Norte 23 Nordeste 0 -- -- 44
2019-08-12 14:00:00 22.5 7 Norte 24 Norte 0 -- -- 46
2019-08-12 13:00:00 20.8 6 Norte 19 Norte 0 -- -- 52
2019-08-12 12:00:00 18.5 5 Nordeste 18 Norte 0 -- -- 61
2019-08-12 11:00:00 16.1 4 Norte 12 Nordeste 0 -- -- 75
2019-08-12 10:00:00 12.4 0 Calma 4 Norte 0 -- -- 91
2019-08-12 09:00:00 11.2 0 Calma 5 Norte 0 -- -- 93
2019-08-12 08:00:00 10.2 0 Calma 6 Nordeste 0 -- -- 93
2019-08-12 07:00:00 10.1 0 Calma 3 Nordeste 0 -- -- 94
2019-08-12 06:00:00 9.7 0 Calma 3 Nordeste 0 -- -- 93
2019-08-12 05:00:00 9.8 0 Calma 3 Nordeste 0 -- -- 91
2019-08-12 04:00:00 10.8 0 Calma 3 Nordeste 0 -- -- 87
2019-08-12 03:00:00 12.2 0 Calma 3 Norte 0 -- -- 87
2019-08-12 02:00:00 12.9 0 Calma 4 Nordeste 0 -- -- 87
2019-08-12 01:00:00 13.3 0 Calma 5 Nordeste 0 -- -- 87
2019-08-12 00:00:00 14.1 0 Calma 3 Noroeste 0 -- -- 85
2019-08-11 23:00:00 14.9 0 Calma 2 Nordeste 0 -- -- 83
2019-08-11 22:00:00 16.2 0 Calma 6 Noroeste 0 -- -- 77
2019-08-11 21:00:00 17.7 3 Noroeste 19 Noroeste 0 -- -- 70
2019-08-11 20:00:00 18.7 9 Noroeste 23 Noroeste 0 -- -- 65
2019-08-11 19:00:00 19.1 8 Noroeste 22 Noroeste 0 -- -- 61
2019-08-11 18:00:00 18.9 8 Norte 19 Noroeste 0.2 -- -- 62
2019-08-11 17:00:00 19.2 7 Noroeste 28 Norte 0.2 -- -- 69
2019-08-11 16:00:00 23.1 12 Noroeste 23 Oeste 0 -- -- 51
2019-08-11 15:00:00 22.1 5 Oeste 24 Noroeste 0 -- -- 54
2019-08-11 14:00:00 21.6 6 Sur 15 Sudoeste 0 -- -- 51
2019-08-11 13:00:00 20.9 8 Sudoeste 16 Sudoeste 0 -- -- 56
2019-08-11 12:00:00 19.4 6 Sudoeste 12 Sudoeste 0 -- -- 62
2019-08-11 11:00:00 18.5 2 Norte 10 Noroeste 0 -- -- 68
2019-08-11 10:00:00 15.5 2 Norte 10 Noroeste 0 -- -- 79
2019-08-11 09:00:00 14.1 3 Noroeste 7 Noroeste 0 -- -- 86
2019-08-11 08:00:00 14.2 0 Calma 4 Noroeste 0 -- -- 84
2019-08-11 07:00:00 14.6 0 Calma 8 Norte 0 -- -- 83
2019-08-11 06:00:00 15.3 2 Noroeste 8 Noroeste 0 -- -- 81
2019-08-11 05:00:00 15.7 3 Noroeste 6 Noroeste 0 -- -- 78
2019-08-11 04:00:00 15.9 0 Calma 4 Norte 0 -- -- 78
2019-08-11 03:00:00 16.5 3 Norte 8 Norte 0 -- -- 73
2019-08-11 02:00:00 16.8 0 Calma 5 Noroeste 0 -- -- 74
2019-08-11 01:00:00 17.4 0 Calma 10 Noroeste 0 -- -- 73
2019-08-11 00:00:00 18.1 4 Norte 18 Norte 0 -- -- 71
2019-08-10 23:00:00 18.9 5 Noroeste 12 Noroeste 0 -- -- 67
2019-08-10 22:00:00 19.3 0 Calma 20 Noroeste 0 -- -- 64
2019-08-10 21:00:00 20.8 8 Noroeste 23 Noroeste 0 -- -- 59
2019-08-10 20:00:00 22.7 8 Noroeste 20 Noroeste 0 -- -- 55
2019-08-10 19:00:00 24 6 Noroeste 16 Noroeste 0 -- -- 49
2019-08-10 18:00:00 24.5 6 Noroeste 18 Noroeste 0 -- -- 50
2019-08-10 17:00:00 25 5 Noroeste 15 Noroeste 0 -- -- 50
2019-08-10 16:00:00 25.2 5 Noroeste 23 Sudoeste 0 -- -- 49
2019-08-10 15:00:00 24.4 3 Oeste 21 Sudoeste 0 -- -- 47
2019-08-10 14:00:00 24.3 5 Sudoeste 14 Sudoeste 0 -- -- 48
2019-08-10 13:00:00 22 3 Noroeste 12 Sudoeste 0 -- -- 58
2019-08-10 12:00:00 20.4 2 Noroeste 10 Sudoeste 0 -- -- 66
2019-08-10 11:00:00 17.6 0 Calma 4 Oeste 0 -- -- 80
2019-08-10 10:00:00 14.9 0 Calma 4 Norte 0 -- -- 91
2019-08-10 09:00:00 13.2 0 Calma 6 Noroeste 0 -- -- 95
2019-08-10 08:00:00 12.1 0 Calma 3 Este 0 -- -- 95
2019-08-10 07:00:00 12.4 0 Calma 4 Nordeste 0 -- -- 91
2019-08-10 06:00:00 13.1 2 Nordeste 4 Nordeste 0 -- -- 91
2019-08-10 05:00:00 14 2 Nordeste 4 Nordeste 0 -- -- 90
2019-08-10 04:00:00 14.7 0 Calma 3 Nordeste 0 -- -- 90
2019-08-10 03:00:00 15.1 0 Calma 4 Norte 0 -- -- 90
2019-08-10 02:00:00 15.3 0 Calma 4 Noroeste 0 -- -- 89
2019-08-10 01:00:00 15.4 0 Calma 4 Noroeste 0 -- -- 88
2019-08-10 00:00:00 16.3 0 Calma 4 Noroeste 0 -- -- 83
2019-08-09 23:00:00 18.5 0 Calma 6 Oeste 0 -- -- 76
2019-08-09 22:00:00 19.3 0 Calma 14 Sudoeste 0 -- -- 72
2019-08-09 21:00:00 20 5 Oeste 20 Oeste 0 -- -- 67
2019-08-09 20:00:00 20.9 6 Oeste 31 Sudoeste 0 -- -- 62
2019-08-09 19:00:00 21.1 11 Sudoeste 32 Sudoeste 0 -- -- 65
2019-08-09 18:00:00 21.7 6 Oeste 39 Sudoeste 0 -- -- 61
2019-08-09 17:00:00 23.1 11 Sudoeste 34 Sudoeste 0 -- -- 55
2019-08-09 16:00:00 23.3 21 Sudoeste 45 Sudoeste 0 -- -- 55
2019-08-09 15:00:00 23.8 15 Sudoeste 40 Sudoeste 0 -- -- 56
2019-08-09 14:00:00 24.1 21 Sudoeste 42 Sudoeste 0 -- -- 51
2019-08-09 13:00:00 23.9 15 Sudoeste 33 Sudoeste 0 -- -- 57
2019-08-09 12:00:00 22.8 13 Sudoeste 33 Sudoeste 0 -- -- 63
2019-08-09 11:00:00 20.8 15 Sudoeste 30 Oeste 0 -- -- 67
2019-08-09 10:00:00 19.4 9 Sudoeste 19 Sudoeste 0 -- -- 74
2019-08-09 09:00:00 15.7 0 Calma 5 Sudoeste 0 -- -- 94
2019-08-09 08:00:00 15.6 0 Calma 5 Sudoeste 0 -- -- 93
2019-08-09 07:00:00 16.3 3 Sur 8 Sudoeste 0 -- -- 92
2019-08-09 06:00:00 17.1 0 Calma 12 Oeste 0 -- -- 90
2019-08-09 05:00:00 17.6 0 Calma 15 Sudoeste 0 -- -- 90
2019-08-09 04:00:00 18.5 5 Sudoeste 28 Sudoeste 0 -- -- 89
2019-08-09 03:00:00 20.3 7 Oeste 26 Sudoeste 5.2 -- -- 92
2019-08-09 02:00:00 21.5 0 Calma 14 Sudoeste 1.4 -- -- 89
2019-08-09 01:00:00 23 9 Sur 26 Sur 0 -- -- 77
2019-08-09 00:00:00 22.7 7 Sur 28 Sudoeste 0.2 -- -- 80
2019-08-08 23:00:00 24.3 10 Sur 27 Sur 0 -- -- 70
2019-08-08 22:00:00 24.5 13 Sur 32 Sur 0 -- -- 68
2019-08-08 21:00:00 24.8 7 Sur 31 Sudoeste 0 -- -- 66
2019-08-08 20:00:00 25.6 15 Sur 37 Sudoeste 0 -- -- 62
2019-08-08 19:00:00 26.9 11 Sur 34 Sudoeste 0 -- -- 60
2019-08-08 18:00:00 26.4 14 Sur 35 Sur 0 -- -- 62
2019-08-08 17:00:00 26.4 14 Sudoeste 33 Sudoeste 0 -- -- 68
2019-08-08 16:00:00 26.9 8 Sudoeste 29 Sudoeste 0 -- -- 71
2019-08-08 15:00:00 25.8 16 Sudoeste 35 Sudoeste 0 -- -- 73
2019-08-08 14:00:00 25.1 13 Sudoeste 33 Oeste 0 -- -- 74
2019-08-08 13:00:00 23.2 0 Calma 5 Nordeste 0.2 -- -- 92
2019-08-08 12:00:00 23.4 0 Calma 10 Sur 0 -- -- 87
2019-08-08 11:00:00 21.2 0 Calma 4 Norte 0 -- -- 95
2019-08-08 10:00:00 20.4 2 Noroeste 6 Noroeste 0 -- -- 95
2019-08-08 09:00:00 19.4 0 Calma 4 Noroeste 0 -- -- 96
2019-08-08 08:00:00 18.8 0 Calma 5 Norte 0 -- -- 95
2019-08-08 07:00:00 19.1 0 Calma 4 Norte 0 -- -- 95
2019-08-08 06:00:00 19.1 2 Norte 4 Norte 0 -- -- 95
2019-08-08 05:00:00 19.1 0 Calma 6 Sur 0 -- -- 95
2019-08-08 04:00:00 19 3 Sudeste 8 Sudeste 0 -- -- 95
2019-08-08 03:00:00 19 0 Calma 5 Nordeste 0 -- -- 95
2019-08-08 02:00:00 19.1 0 Calma 5 Nordeste 0 -- -- 94
2019-08-08 01:00:00 19.3 3 Norte 7 Norte 0 -- -- 94
2019-08-08 00:00:00 19.4 0 Calma 5 Nordeste 0.2 -- -- 93
2019-08-07 23:00:00 19.9 0 Calma 6 Sur 0.2 -- -- 91
2019-08-07 22:00:00 20.8 0 Calma 4 Norte 0 -- -- 92
2019-08-07 21:00:00 21.2 0 Calma 6 Este 0 -- -- 91
2019-08-07 20:00:00 21.1 0 Calma 3 Sur 0 -- -- 91
2019-08-07 19:00:00 21.3 0 Calma 7 Sudeste 0 -- -- 91
2019-08-07 18:00:00 21.1 3 Sudeste 9 Sudeste 0 -- -- 87
2019-08-07 17:00:00 21 0 Calma 5 Sudeste 0.2 -- -- 92
2019-08-07 16:00:00 20.5 2 Nordeste 5 Nordeste 1.2 -- -- 92
2019-08-07 15:00:00 20.6 0 Calma 6 Nordeste 3.8 -- -- 86
2019-08-07 14:00:00 21.9 0 Calma 6 Noroeste 2.8 -- -- 85
2019-08-07 13:00:00 22.3 2 Sudoeste 5 Noroeste 0 -- -- 75
2019-08-07 12:00:00 21.5 3 Norte 10 Nordeste 0 -- -- 78
2019-08-07 11:00:00 18.7 0 Calma 4 Este 0 -- -- 88
2019-08-07 10:00:00 17.1 0 Calma 5 Nordeste 0 -- -- 93
2019-08-07 09:00:00 15.9 0 Calma 5 Norte 0 -- -- 95
2019-08-07 08:00:00 15.1 0 Calma 3 Nordeste 0 -- -- 94
2019-08-07 07:00:00 15 0 Calma 2 Nordeste 0 -- -- 91
2019-08-07 06:00:00 15.3 0 Calma 3 Este 0 -- -- 92
2019-08-07 05:00:00 15.6 0 Calma 2 Nordeste 0 -- -- 90
2019-08-07 04:00:00 16.5 0 Calma 4 Nordeste 0 -- -- 89
2019-08-07 03:00:00 17.5 0 Calma 3 Norte 0 -- -- 88
2019-08-07 02:00:00 18.4 0 Calma 4 Noroeste 0 -- -- 89
2019-08-07 01:00:00 18.5 0 Calma 4 Noroeste 0 -- -- 88
2019-08-07 00:00:00 19.4 0 Calma 3 Noroeste 0 -- -- 85
2019-08-06 23:00:00 20 0 Calma 6 Norte 0 -- -- 84
2019-08-06 22:00:00 20.8 0 Calma 3 Noroeste 0 -- -- 82
2019-08-06 21:00:00 21.3 0 Calma 4 Sur 0 -- -- 80
2019-08-06 20:00:00 21.8 0 Calma 7 Nordeste 0 -- -- 77
2019-08-06 19:00:00 22.5 0 Calma 15 Noroeste 0 -- -- 76
2019-08-06 18:00:00 23.3 6 Noroeste 21 Noroeste 0 -- -- 71
2019-08-06 17:00:00 24.3 5 Sudoeste 14 Sudoeste 0 -- -- 65
2019-08-06 16:00:00 24.6 6 Oeste 17 Sudoeste 0 -- -- 64
2019-08-06 15:00:00 25.2 5 Oeste 19 Sudoeste 0 -- -- 62
2019-08-06 14:00:00 25.1 4 Noroeste 13 Oeste 0 -- -- 62
2019-08-06 13:00:00 24 3 Sur 9 Sur 0 -- -- 65
2019-08-06 12:00:00 22.5 4 Sur 9 Sur 0 -- -- 72
2019-08-06 11:00:00 20.1 2 Sudoeste 7 Sudoeste 0 -- -- 79
2019-08-06 10:00:00 19 2 Sudoeste 5 Sudoeste 0 -- -- 84
2019-08-06 09:00:00 18.3 0 Calma 5 Noroeste 0 -- -- 86
2019-08-06 08:00:00 17.8 0 Calma 3 Noroeste 0 -- -- 88
2019-08-06 07:00:00 17.3 0 Calma 4 Norte 0 -- -- 88
2019-08-06 06:00:00 17.1 0 Calma 5 Sudoeste 0 -- -- 87
2019-08-06 05:00:00 17.6 2 Sudoeste 5 Sudoeste 0 -- -- 86
2019-08-06 04:00:00 18.6 0 Calma 4 Sudoeste 0 -- -- 82
2019-08-06 03:00:00 19.6 0 Calma 9 Sudoeste 0 -- -- 80
2019-08-06 02:00:00 21.1 2 Oeste 8 Sudoeste 0 -- -- 75
2019-08-06 01:00:00 21.8 4 Sudoeste 8 Oeste 0 -- -- 73
2019-08-06 00:00:00 22.3 4 Noroeste 9 Noroeste 0 -- -- 71
2019-08-05 23:00:00 23.5 5 Noroeste 10 Norte 0 -- -- 66
2019-08-05 22:00:00 24.5 4 Noroeste 19 Oeste 0 -- -- 62
2019-08-05 21:00:00 26.3 9 Noroeste 25 Noroeste 0 -- -- 58
2019-08-05 20:00:00 28.8 10 Noroeste 21 Noroeste 0 -- -- 51
2019-08-05 19:00:00 30.1 6 Noroeste 19 Noroeste 0 -- -- 46
2019-08-05 18:00:00 30.4 6 Sudoeste 16 Oeste 0 -- -- 44
2019-08-05 17:00:00 32.1 6 Noroeste 18 Noroeste 0 -- -- 43
2019-08-05 16:00:00 31.6 6 Oeste 18 Sudoeste 0 -- -- 39
2019-08-05 15:00:00 30.3 5 Oeste 15 Sudoeste 0 -- -- 44
2019-08-05 14:00:00 28.6 4 Sudoeste 13 Sudoeste 0 -- -- 48
2019-08-05 13:00:00 26 5 Sudoeste 11 Sur 0 -- -- 46
2019-08-05 12:00:00 23.7 3 Sur 8 Sudeste 0 -- -- 66
2019-08-05 11:00:00 21 3 Este 8 Sur 0 -- -- 74
2019-08-05 10:00:00 18.2 2 Sudoeste 5 Noroeste 0 -- -- 84
2019-08-05 09:00:00 16.3 0 Calma 3 Norte 0 -- -- 91
2019-08-05 08:00:00 15.9 0 Calma 2 Nordeste 0 -- -- 87
2019-08-05 07:00:00 16.8 0 Calma 5 Norte 0 -- -- 85
2019-08-05 06:00:00 17.9 3 Norte 8 Nordeste 0 -- -- 84
2019-08-05 05:00:00 18.5 4 Nordeste 6 Nordeste 0 -- -- 82
2019-08-05 04:00:00 18.9 0 Calma 5 Noroeste 0 -- -- 82
2019-08-05 03:00:00 19.1 0 Calma 4 Sudoeste 0 -- -- 80
2019-08-05 02:00:00 19.5 0 Calma 3 Noroeste 0 -- -- 79
2019-08-05 01:00:00 19.9 0 Calma 12 Noroeste 0 -- -- 77
2019-08-05 00:00:00 20.8 4 Norte 14 Norte 0 -- -- 76
2019-08-04 23:00:00 21.8 0 Calma 10 Noroeste 0 -- -- 69
2019-08-04 22:00:00 23.7 4 Noroeste 17 Noroeste 0 -- -- 63
2019-08-04 21:00:00 25.6 9 Noroeste 25 Noroeste 0 -- -- 58
2019-08-04 20:00:00 27.6 12 Noroeste 30 Noroeste 0 -- -- 48
2019-08-04 19:00:00 29.2 9 Noroeste 20 Noroeste 0 -- -- 45
2019-08-04 18:00:00 29.6 5 Oeste 19 Noroeste 0 -- -- 42
2019-08-04 17:00:00 30.7 6 Noroeste 16 Oeste 0 -- -- 44
2019-08-04 16:00:00 29.9 3 Sudeste 16 Sur 0 -- -- 44
2019-08-04 15:00:00 28.5 5 Oeste 14 Noroeste 0 -- -- 50
2019-08-04 14:00:00 26.4 5 Sudeste 14 Sur 0 -- -- 56
2019-08-04 13:00:00 24.5 4 Sur 15 Sudoeste 0 -- -- 62
2019-08-04 12:00:00 21.4 2 Norte 8 Noroeste 0 -- -- 74
2019-08-04 11:00:00 20.5 2 Nordeste 5 Noroeste 0 -- -- 77
2019-08-04 10:00:00 19.5 0 Calma 4 Sudoeste 0 -- -- 83
2019-08-04 09:00:00 18.5 0 Calma 4 Sudoeste 0 -- -- 87
2019-08-04 08:00:00 17.4 0 Calma 5 Norte 0 -- -- 88
2019-08-04 07:00:00 18.1 0 Calma 3 Noroeste 0 -- -- 86
2019-08-04 06:00:00 18.3 0 Calma 3 Noroeste 0 -- -- 85
2019-08-04 05:00:00 19 0 Calma 6 Noroeste 0 -- -- 82
2019-08-04 04:00:00 19.3 0 Calma 8 Oeste 0 -- -- 80
2019-08-04 03:00:00 19.6 0 Calma 4 Noroeste 0 -- -- 80
2019-08-04 02:00:00 20.1 0 Calma 5 Sudoeste 0 -- -- 77
2019-08-04 01:00:00 21 2 Noroeste 16 Noroeste 0 -- -- 74
2019-08-04 00:00:00 22 4 Norte 11 Norte 0 -- -- 72
2019-08-03 23:00:00 23.5 5 Norte 14 Oeste 0 -- -- 66
2019-08-03 22:00:00 25.1 5 Norte 19 Norte 0 -- -- 64
2019-08-03 21:00:00 27.3 9 Noroeste 26 Noroeste 0 -- -- 58
2019-08-03 20:00:00 29.1 9 Noroeste 23 Noroeste 0 -- -- 45
2019-08-03 19:00:00 30.5 9 Noroeste 23 Noroeste 0 -- -- 43
2019-08-03 18:00:00 31.3 5 Noroeste 18 Noroeste 0 -- -- 40
2019-08-03 17:00:00 33 5 Oeste 19 Noroeste 0 -- -- 37
2019-08-03 16:00:00 32.6 8 Noroeste 17 Oeste 0 -- -- 39
2019-08-03 15:00:00 31.4 6 Oeste 18 Noroeste 0 -- -- 32
2019-08-03 14:00:00 29.4 4 Sudeste 10 Sur 0 -- -- 47
2019-08-03 13:00:00 26.2 3 Sudeste 8 Sudoeste 0 -- -- 60
2019-08-03 12:00:00 23 3 Sudoeste 9 Sudoeste 0 -- -- 70
2019-08-03 11:00:00 20.3 3 Oeste 9 Sudoeste 0 -- -- 80
2019-08-03 10:00:00 17.4 2 Sudeste 4 Sur 0 -- -- 86
2019-08-03 09:00:00 15.2 0 Calma 3 Norte 0 -- -- 93
2019-08-03 08:00:00 13.7 0 Calma 2 Norte 0 -- -- 92
2019-08-03 07:00:00 13.9 0 Calma 3 Norte 0 -- -- 88
2019-08-03 06:00:00 14.8 0 Calma 2 Noroeste 0 -- -- 86
2019-08-03 05:00:00 15.6 0 Calma 3 Noroeste 0 -- -- 86
2019-08-03 04:00:00 16.5 0 Calma 3 Norte 0 -- -- 85
2019-08-03 03:00:00 17.8 0 Calma 2 Norte 0 -- -- 82
2019-08-03 02:00:00 19.2 0 Calma 7 Sudoeste 0 -- -- 78
2019-08-03 01:00:00 20.2 0 Calma 5 Noroeste 0 -- -- 77
2019-08-03 00:00:00 21.2 0 Calma 8 Nordeste 0 -- -- 73
2019-08-02 23:00:00 22.5 0 Calma 5 Noroeste 0 -- -- 62
2019-08-02 22:00:00 25.6 4 Noroeste 18 Norte 0 -- -- 51
2019-08-02 21:00:00 28 8 Noroeste 22 Noroeste 0 -- -- 45
2019-08-02 20:00:00 29.8 9 Noroeste 20 Norte 0 -- -- 42
2019-08-02 19:00:00 30.7 8 Noroeste 18 Noroeste 0 -- -- 43
2019-08-02 18:00:00 31.5 7 Noroeste 17 Sudoeste 0 -- -- 38
2019-08-02 17:00:00 32.8 5 Noroeste 16 Noroeste 0 -- -- 33
2019-08-02 16:00:00 31.9 4 Noroeste 13 Sudoeste 0 -- -- 39
2019-08-02 15:00:00 30.2 3 Sudeste 9 Sudoeste 0 -- -- 46
2019-08-02 14:00:00 27.1 4 Sur 11 Sudoeste 0 -- -- 52
2019-08-02 13:00:00 24.2 4 Sudoeste 8 Sudoeste 0 -- -- 65
2019-08-02 12:00:00 21.5 4 Sudoeste 11 Sudoeste 0 -- -- 73
2019-08-02 11:00:00 18.9 3 Noroeste 8 Noroeste 0 -- -- 82
2019-08-02 10:00:00 18.1 3 Norte 8 Norte 0 -- -- 84
2019-08-02 09:00:00 17.7 0 Calma 8 Sudoeste 0 -- -- 86
2019-08-02 08:00:00 17.5 0 Calma 8 Sudoeste 0 -- -- 87
2019-08-02 07:00:00 17.5 3 Sudeste 5 Sudeste 0 -- -- 86
2019-08-02 06:00:00 17.7 2 Noroeste 10 Noroeste 0 -- -- 85
2019-08-02 05:00:00 17.8 2 Noroeste 5 Sur 0 -- -- 86
2019-08-02 04:00:00 17.9 0 Calma 2 Noroeste 0 -- -- 84
2019-08-02 03:00:00 18 0 Calma 5 Sudoeste 0 -- -- 83
2019-08-02 02:00:00 18 0 Calma 5 Oeste 0 -- -- 83
2019-08-02 01:00:00 18 0 Calma 3 Oeste 0 -- -- 83
2019-08-02 00:00:00 18.1 2 Sudoeste 5 Noroeste 0 -- -- 79
2019-08-01 23:00:00 19.3 0 Calma 16 Norte 0 -- -- 76
2019-08-01 22:00:00 21.3 4 Norte 18 Norte 0 -- -- 70
2019-08-01 21:00:00 23.6 6 Norte 24 Norte 0 -- -- 63
2019-08-01 20:00:00 26.2 11 Norte 27 Norte 0 -- -- 55
2019-08-01 19:00:00 28.4 8 Norte 18 Noroeste 0 -- -- 46
2019-08-01 18:00:00 28.8 6 Noroeste 22 Noroeste 0 -- -- 42
2019-08-01 17:00:00 30.1 5 Oeste 18 Sudoeste 0 -- -- 44
2019-08-01 16:00:00 29.1 4 Oeste 12 Noroeste 0 -- -- 45
2019-08-01 15:00:00 27 3 Sudeste 15 Sur 0 -- -- 54
2019-08-01 14:00:00 24.3 4 Sur 12 Sudoeste 0 -- -- 59
2019-08-01 13:00:00 22.1 3 Sudoeste 12 Sur 0 -- -- 66
2019-08-01 12:00:00 18.8 4 Sur 10 Este 0 -- -- 75
2019-08-01 11:00:00 17 4 Norte 9 Norte 0 -- -- 81
2019-08-01 10:00:00 16 0 Calma 4 Sudeste 0 -- -- 87
2019-08-01 09:00:00 15 0 Calma 3 Norte 0 -- -- 87
2019-08-01 08:00:00 14.6 0 Calma 4 Nordeste 0 -- -- 89
2019-08-01 07:00:00 14.3 0 Calma 5 Nordeste 0 -- -- 88
2019-08-01 06:00:00 14.1 0 Calma 4 Noroeste 0 -- -- 89
2019-08-01 05:00:00 13.8 0 Calma 4 Nordeste 0 -- -- 89
2019-08-01 04:00:00 13.8 0 Calma 4 Norte 0 -- -- 87
2019-08-01 03:00:00 14.7 0 Calma 6 Sudoeste 0 -- -- 86
2019-08-01 02:00:00 14.4 0 Calma 4 Noroeste 0 -- -- 86
2019-08-01 01:00:00 15.4 0 Calma 2 Sudoeste 0 -- -- 82
2019-08-01 00:00:00 16.8 0 Calma 6 Noroeste 0 -- -- 78
2019-07-31 23:00:00 18.6 0 Calma 6 Norte 0 -- -- 72
2019-07-31 22:00:00 20.9 2 Norte 11 Norte 0 -- -- 67
2019-07-31 21:00:00 22.9 5 Norte 15 Norte 0 -- -- 59
2019-07-31 20:00:00 24.7 7 Norte 18 Noroeste 0 -- -- 56
2019-07-31 19:00:00 25.2 6 Norte 20 Norte 0 -- -- 51
2019-07-31 18:00:00 25.4 5 Norte 18 Nordeste 0 -- -- 52
2019-07-31 17:00:00 25 6 Norte 17 Norte 0 -- -- 48
2019-07-31 16:00:00 24.1 4 Norte 18 Nordeste 0 -- -- 51
2019-07-31 15:00:00 24.3 5 Norte 12 Noroeste 0 -- -- 53
2019-07-31 14:00:00 23.9 3 Sudeste 9 Nordeste 0 -- -- 54
2019-07-31 13:00:00 21.3 3 Norte 12 Nordeste 0 -- -- 57
2019-07-31 12:00:00 19 3 Sur 9 Oeste 0 -- -- 64
2019-07-31 11:00:00 16 2 Sudeste 7 Noroeste 0 -- -- 72
2019-07-31 10:00:00 12.4 2 Norte 6 Norte 0 -- -- 86
2019-07-31 09:00:00 9.4 0 Calma 4 Norte 0 -- -- 94
2019-07-31 08:00:00 7.8 0 Calma 3 Noroeste 0 -- -- 90
2019-07-31 07:00:00 8.4 0 Calma 2 Norte 0 -- -- 88
2019-07-31 06:00:00 9.3 0 Calma 2 Nordeste 0 -- -- 87
2019-07-31 05:00:00 9.9 0 Calma 3 Norte 0 -- -- 87
2019-07-31 04:00:00 10.8 0 Calma 5 Norte 0 -- -- 85
2019-07-31 03:00:00 11.9 0 Calma 5 Sudoeste 0 -- -- 83
2019-07-31 02:00:00 12.9 0 Calma 6 Sudoeste 0 -- -- 80
2019-07-31 01:00:00 14 0 Calma 6 Nordeste 0 -- -- 76
2019-07-31 00:00:00 15.5 0 Calma 10 Norte 0 -- -- 73
2019-07-30 23:00:00 16.9 4 Norte 10 Noroeste 0 -- -- 67
2019-07-30 22:00:00 18.9 4 Noroeste 12 Norte 0 -- -- 56
2019-07-30 21:00:00 20.8 6 Norte 19 Norte 0 -- -- 48
2019-07-30 20:00:00 22.2 8 Noroeste 28 Noroeste 0 -- -- 45
2019-07-30 19:00:00 22.6 7 Norte 24 Nordeste 0 -- -- 44
2019-07-30 18:00:00 22.7 10 Norte 20 Norte 0 -- -- 44
2019-07-30 17:00:00 24.1 8 Norte 23 Norte 0 -- -- 44
2019-07-30 16:00:00 24.3 8 Norte 19 Norte 0 -- -- 42
2019-07-30 15:00:00 22.9 8 Nordeste 19 Norte 0 -- -- 47
2019-07-30 14:00:00 21.5 4 Nordeste 15 Nordeste 0 -- -- 50
2019-07-30 13:00:00 20.5 4 Nordeste 12 Norte 0 -- -- 55
2019-07-30 12:00:00 18.2 4 Oeste 10 Nordeste 0 -- -- 64
2019-07-30 11:00:00 15.7 3 Noroeste 7 Norte 0 -- -- 74
2019-07-30 10:00:00 13 0 Calma 5 Norte 0 -- -- 85
2019-07-30 09:00:00 10.6 0 Calma 5 Norte 0 -- -- 91
2019-07-30 08:00:00 9.8 0 Calma 6 Sudeste 0 -- -- 93
2019-07-30 07:00:00 9.1 0 Calma 5 Sudoeste 0 -- -- 90
2019-07-30 06:00:00 10 0 Calma 4 Noroeste 0 -- -- 90
2019-07-30 05:00:00 9.6 0 Calma 3 Norte 0 -- -- 91
2019-07-30 04:00:00 10.2 0 Calma 4 Noroeste 0 -- -- 87
2019-07-30 03:00:00 11.4 0 Calma 4 Noroeste 0 -- -- 84
2019-07-30 02:00:00 11.9 0 Calma 5 Norte 0 -- -- 88
2019-07-30 01:00:00 12.2 0 Calma 3 Noroeste 0 -- -- 83
2019-07-30 00:00:00 13.1 2 Este 5 Noroeste 0 -- -- 82
2019-07-29 23:00:00 14.5 0 Calma 6 Norte 0 -- -- 75
2019-07-29 22:00:00 16.4 0 Calma 22 Noroeste 0 -- -- 68
2019-07-29 21:00:00 17.9 14 Noroeste 33 Noroeste 0 -- -- 64
2019-07-29 20:00:00 21.3 9 Noroeste 23 Noroeste 0 -- -- 52
2019-07-29 19:00:00 22.3 8 Oeste 23 Oeste 0 -- -- 44
2019-07-29 18:00:00 23.1 9 Oeste 30 Noroeste 0 -- -- 46
2019-07-29 17:00:00 25 6 Oeste 31 Sudoeste 0 -- -- 41
2019-07-29 16:00:00 24.8 9 Oeste 30 Noroeste 0 -- -- 40
2019-07-29 15:00:00 23.8 12 Oeste 33 Noroeste 0 -- -- 45
2019-07-29 14:00:00 22.6 9 Oeste 28 Sudoeste 0 -- -- 53
2019-07-29 13:00:00 21.7 10 Sudoeste 27 Sudoeste 0 -- -- 55
2019-07-29 12:00:00 21.4 11 Sudoeste 26 Sur 0 -- -- 57
2019-07-29 11:00:00 19.4 7 Oeste 22 Sudoeste 0 -- -- 64
2019-07-29 10:00:00 17.2 6 Sudoeste 14 Sudoeste 0 -- -- 81
2019-07-29 09:00:00 15.9 0 Calma 5 Nordeste 0 -- -- 88
2019-07-29 08:00:00 15.5 0 Calma 6 Sudoeste 0 -- -- 89
2019-07-29 07:00:00 15.6 2 Sudoeste 7 Sudoeste 0 -- -- 83
2019-07-29 06:00:00 16.2 0 Calma 10 Sudoeste 0 -- -- 84
2019-07-29 05:00:00 16.2 0 Calma 3 Nordeste 0 -- -- 77
2019-07-29 04:00:00 16.1 0 Calma 3 Nordeste 0 -- -- 78
2019-07-29 03:00:00 15.8 0 Calma 4 Nordeste 0 -- -- 77
2019-07-29 02:00:00 15.7 0 Calma 7 Sur 0 -- -- 77
2019-07-29 01:00:00 16.9 3 Sudoeste 9 Oeste 0 -- -- 70
2019-07-29 00:00:00 18.9 0 Calma 10 Oeste 0 -- -- 63
2019-07-28 23:00:00 20.8 3 Oeste 19 Sudoeste 0 -- -- 58
2019-07-28 22:00:00 23 2 Oeste 21 Sudoeste 0 -- -- 56
2019-07-28 21:00:00 25.2 4 Oeste 22 Sudoeste 0 -- -- 45
2019-07-28 20:00:00 26.7 6 Oeste 23 Sudoeste 0 -- -- 39
2019-07-28 19:00:00 27.2 6 Oeste 20 Sudoeste 0 -- -- 41
2019-07-28 18:00:00 27.2 6 Sudoeste 23 Sudoeste 0 -- -- 41
2019-07-28 17:00:00 28.8 7 Oeste 24 Sudoeste 0 -- -- 38
2019-07-28 16:00:00 28.5 6 Oeste 23 Oeste 0 -- -- 33
2019-07-28 15:00:00 27 7 Oeste 17 Sudoeste 0 -- -- 47
2019-07-28 14:00:00 25.2 6 Oeste 14 Sudoeste 0 -- -- 54
2019-07-28 13:00:00 22.1 2 Sudeste 8 Sur 0 -- -- 62
2019-07-28 12:00:00 18 3 Sudoeste 11 Noroeste 0 -- -- 76
2019-07-28 11:00:00 13.7 2 Noroeste 6 Norte 0 -- -- 88
2019-07-28 10:00:00 11.9 0 Calma 3 Noroeste 0 -- -- 93
2019-07-28 09:00:00 10.2 0 Calma 4 Nordeste 0 -- -- 95
2019-07-28 08:00:00 8.9 0 Calma 3 Noroeste 0 -- -- 95
2019-07-28 07:00:00 8.7 0 Calma 3 Noroeste 0 -- -- 92
2019-07-28 06:00:00 9.3 0 Calma 3 Norte 0 -- -- 90
2019-07-28 05:00:00 9.9 0 Calma 4 Norte 0 -- -- 90
2019-07-28 04:00:00 10.9 0 Calma 4 Norte 0 -- -- 88
2019-07-28 03:00:00 12.1 0 Calma 4 Nordeste 0 -- -- 88
2019-07-28 02:00:00 13.3 0 Calma 5 Sur 0 -- -- 85
2019-07-28 01:00:00 14.4 2 Oeste 7 Noroeste 0 -- -- 82
2019-07-28 00:00:00 15.5 5 Noroeste 10 Noroeste 0 -- -- 78
2019-07-27 23:00:00 17 2 Sudeste 14 Norte 0 -- -- 74
2019-07-26 12:00:00 -- -- -- -- -- -- -- -- --
2019-07-26 11:00:00 17.9 2 Este 5 Sur 0 -- -- 77
2019-07-26 10:00:00 15.4 0 Calma 5 Norte 0 -- -- 89
2019-07-26 09:00:00 13.5 0 Calma 4 Noroeste 0 -- -- 92
2019-07-26 08:00:00 12.6 0 Calma 4 Noroeste 0 -- -- 94
2019-07-26 07:00:00 12.2 0 Calma 2 Norte 0 -- -- 95
2019-07-26 06:00:00 11.9 0 Calma 4 Noroeste 0 -- -- 92
2019-07-26 05:00:00 11.6 0 Calma 4 Nordeste 0 -- -- 93
2019-07-26 04:00:00 12 0 Calma 4 Norte 0 -- -- 89
2019-07-26 03:00:00 13.1 0 Calma 3 Norte 0 -- -- 87
2019-07-26 02:00:00 14.5 0 Calma 4 Norte 0 -- -- 86
2019-07-26 01:00:00 16.1 0 Calma 6 Sudoeste 0 -- -- 85
2019-07-26 00:00:00 16.9 2 Oeste 6 Sudoeste 0 -- -- 85
2019-07-25 23:00:00 18.9 2 Sudoeste 10 Sudoeste 0 -- -- 80
2019-07-25 22:00:00 20 6 Sudoeste 11 Sudoeste 0 -- -- 77
2019-07-25 21:00:00 20.3 5 Sudoeste 9 Sudoeste 0 -- -- 77
2019-07-25 20:00:00 20.5 3 Sur 9 Sur 0 -- -- 76
2019-07-25 19:00:00 20 6 Sudoeste 13 Sudoeste 0 -- -- 78
2019-07-25 18:00:00 19.8 3 Sur 9 Sudoeste 0 -- -- 86
2019-07-25 17:00:00 20.1 4 Oeste 32 Sudoeste 0.2 -- -- 80
2019-07-25 16:00:00 22.9 6 Oeste 29 Sudoeste 0 -- -- 70
2019-07-25 15:00:00 26.6 8 Oeste 24 Sudoeste 0 -- -- 57
2019-07-25 14:00:00 27.1 9 Sudoeste 29 Sudoeste 0 -- -- 48
2019-07-25 13:00:00 27.7 13 Sudoeste 31 Sudoeste 0 -- -- 48
2019-07-25 12:00:00 25.6 10 Sudoeste 24 Sudoeste 0 -- -- 55
2019-07-25 11:00:00 23.1 4 Sudoeste 11 Sudoeste 0 -- -- 64
2019-07-25 10:00:00 18.1 3 Norte 7 Este 0 -- -- 82
2019-07-25 09:00:00 14.8 2 Norte 5 Nordeste 0 -- -- 89
2019-07-25 08:00:00 14 2 Norte 6 Norte 0 -- -- 89
2019-07-25 07:00:00 14.1 0 Calma 4 Noroeste 0 -- -- 89
2019-07-25 06:00:00 14.2 0 Calma 4 Noroeste 0 -- -- 87
2019-07-25 05:00:00 14.7 0 Calma 4 Noroeste 0 -- -- 86
2019-07-25 04:00:00 15.4 0 Calma 3 Norte 0 -- -- 83
2019-07-25 03:00:00 16.1 2 Norte 4 Nordeste 0 -- -- 81
2019-07-25 02:00:00 17.3 0 Calma 3 Norte 0 -- -- 77
2019-07-25 01:00:00 19.1 0 Calma 5 Norte 0 -- -- 71
2019-07-25 00:00:00 21.3 2 Nordeste 13 Sudoeste 0 -- -- 65
2019-07-24 23:00:00 23.8 6 Sudoeste 14 Sudoeste 0 -- -- 53
2019-07-24 22:00:00 25.5 5 Sudoeste 22 Sudoeste 0 -- -- 46
2019-07-24 21:00:00 28 4 Oeste 18 Sudoeste 0 -- -- 39
2019-07-24 20:00:00 30.1 5 Oeste 25 Sudoeste 0 -- -- 35
2019-07-24 19:00:00 30.6 9 Oeste 28 Sudoeste 0 -- -- 37
2019-07-24 18:00:00 32.3 9 Oeste 28 Sudoeste 0 -- -- 38
2019-07-24 17:00:00 33.6 9 Oeste 30 Sudoeste 0 -- -- 37
2019-07-24 16:00:00 34.2 8 Oeste 26 Sudoeste 0 -- -- 38
2019-07-24 15:00:00 34.2 8 Oeste 18 Noroeste 0 -- -- 43
2019-07-24 14:00:00 31.6 4 Sur 11 Oeste 0 -- -- 49
2019-07-24 13:00:00 28.7 3 Sudoeste 9 Noroeste 0 -- -- 59
2019-07-24 12:00:00 25.3 3 Oeste 9 Oeste 0 -- -- 67
2019-07-24 11:00:00 21.8 2 Sur 6 Noroeste 0 -- -- 73
2019-07-24 10:00:00 17.7 2 Norte 6 Norte 0 -- -- 89
2019-07-24 09:00:00 15.5 2 Norte 4 Norte 0 -- -- 94
2019-07-24 08:00:00 14.4 0 Calma 2 Este 0 -- -- 92
2019-07-24 07:00:00 14.6 0 Calma 3 Norte 0 -- -- 90
2019-07-24 06:00:00 15.2 2 Norte 3 Nordeste 0 -- -- 89
2019-07-24 05:00:00 15.9 0 Calma 4 Noroeste 0 -- -- 88
2019-07-24 04:00:00 16.9 0 Calma 3 Noroeste 0 -- -- 86
2019-07-24 03:00:00 17.8 0 Calma 3 Norte 0 -- -- 86
2019-07-24 02:00:00 18.9 0 Calma 8 Sudoeste 0 -- -- 82
2019-07-24 01:00:00 20.1 3 Sudoeste 8 Sudoeste 0 -- -- 79
2019-07-24 00:00:00 21.8 0 Calma 4 Sudoeste 0 -- -- 76